createdAt,value
2022-08-16T00:01:24.812Z,100.00
2022-08-16T00:03:54.023Z,100.00
2022-08-16T00:06:22.717Z,100.00
2022-08-16T00:08:49.946Z,100.00
2022-08-16T00:11:18.049Z,100.00
2022-08-16T00:13:53.687Z,100.00
2022-08-16T00:17:05.594Z,100.00
2022-08-16T00:19:25.036Z,100.00
2022-08-16T00:22:01.669Z,100.00
2022-08-16T00:24:34.572Z,100.00
2022-08-16T00:27:03.577Z,100.00
2022-08-16T00:29:30.810Z,100.00
2022-08-16T00:32:01.300Z,100.00
2022-08-16T00:34:43.465Z,100.00
2022-08-16T00:37:21.146Z,100.00
2022-08-16T00:39:58.180Z,100.00
2022-08-16T00:42:32.294Z,100.00
2022-08-16T00:45:09.344Z,100.00
2022-08-16T00:47:48.862Z,100.00
2022-08-16T00:50:20.489Z,100.00
2022-08-16T00:52:51.052Z,100.00
2022-08-16T00:55:22.083Z,100.00
2022-08-16T00:57:59.805Z,100.00
2022-08-16T01:00:31.288Z,100.00
2022-08-16T01:03:02.875Z,100.00
2022-08-16T01:05:30.641Z,100.00
2022-08-16T01:08:00.114Z,100.00
2022-08-16T01:10:33.214Z,100.00
2022-08-16T01:13:22.673Z,100.00
2022-08-16T01:16:13.183Z,100.00
2022-08-16T01:19:05.468Z,100.00
2022-08-16T01:21:47.817Z,100.00
2022-08-16T01:24:51.952Z,100.00
2022-08-16T01:27:27.928Z,100.00
2022-08-16T01:30:20.073Z,100.00
2022-08-16T01:33:01.304Z,100.00
2022-08-16T01:35:52.510Z,100.00
2022-08-16T01:38:25.718Z,100.00
2022-08-16T01:41:01.854Z,100.00
2022-08-16T01:43:31.356Z,100.00
2022-08-16T01:46:31.210Z,100.00
2022-08-16T01:48:48.811Z,100.00
2022-08-16T01:51:18.522Z,100.00
2022-08-16T01:53:55.315Z,100.00
2022-08-16T01:56:24.598Z,100.00
2022-08-16T01:58:54.935Z,100.00
2022-08-16T02:01:23.076Z,100.00
2022-08-16T02:03:53.201Z,100.00
2022-08-16T02:06:34.726Z,100.00
2022-08-16T02:09:06.362Z,100.00
2022-08-16T02:11:47.720Z,100.00
2022-08-16T02:14:18.601Z,100.00
2022-08-16T02:16:49.742Z,100.00
2022-08-16T02:19:18.595Z,100.00
2022-08-16T02:22:09.231Z,100.00
2022-08-16T02:24:42.314Z,100.00
2022-08-16T02:27:13.363Z,100.00
2022-08-16T02:29:41.548Z,100.00
2022-08-16T02:32:50.117Z,100.00
2022-08-16T02:34:58.472Z,100.00
2022-08-16T02:37:44.748Z,100.00
2022-08-16T02:40:13.344Z,100.00
2022-08-16T02:42:49.693Z,100.00
2022-08-16T02:45:20.439Z,100.00
2022-08-16T02:48:00.644Z,100.00
2022-08-16T02:50:53.976Z,100.00
2022-08-16T02:53:27.232Z,100.00
2022-08-16T02:55:54.323Z,100.00
2022-08-16T02:58:25.005Z,100.00
2022-08-16T03:00:57.833Z,100.00
2022-08-16T03:03:26.854Z,100.00
2022-08-16T03:06:41.376Z,100.00
2022-08-16T03:09:01.773Z,100.00
2022-08-16T03:11:35.600Z,100.00
2022-08-16T03:14:02.682Z,100.00
2022-08-16T03:16:39.000Z,100.00
2022-08-16T03:19:20.993Z,100.00
2022-08-16T03:21:52.628Z,100.00
2022-08-16T03:24:29.019Z,100.00
2022-08-16T03:27:02.783Z,100.00
2022-08-16T03:29:33.803Z,100.00
2022-08-16T03:32:02.371Z,100.00
2022-08-16T03:34:31.175Z,100.00
2022-08-16T03:36:58.345Z,100.00
2022-08-16T03:39:25.181Z,100.00
2022-08-16T03:42:00.018Z,100.00
2022-08-16T03:44:44.096Z,100.00
2022-08-16T03:47:18.526Z,100.00
2022-08-16T03:49:51.796Z,100.00
2022-08-16T03:52:20.682Z,100.00
2022-08-16T03:54:53.241Z,100.00
2022-08-16T03:57:20.647Z,100.00
2022-08-16T03:59:47.370Z,100.00
2022-08-16T04:02:22.367Z,100.00
2022-08-16T04:04:58.553Z,100.00
2022-08-16T04:07:25.570Z,100.00
2022-08-16T04:09:52.519Z,100.00
2022-08-16T04:12:54.536Z,100.00
2022-08-16T04:15:10.530Z,100.00
2022-08-16T04:17:40.855Z,100.00
2022-08-16T04:20:31.440Z,100.00
2022-08-16T04:22:56.414Z,100.00
2022-08-16T04:25:28.070Z,100.00
2022-08-16T04:27:56.972Z,100.00
2022-08-16T04:30:32.010Z,100.00
2022-08-16T04:33:02.173Z,100.00
2022-08-16T04:35:34.324Z,100.00
2022-08-16T04:38:11.106Z,100.00
2022-08-16T04:40:48.272Z,100.00
2022-08-16T04:43:18.614Z,100.00
2022-08-16T04:45:46.380Z,100.00
2022-08-16T04:48:22.052Z,100.00
2022-08-16T04:50:59.363Z,100.00
2022-08-16T04:53:26.033Z,100.00
2022-08-16T04:55:53.367Z,100.00
2022-08-16T04:58:45.254Z,100.00
2022-08-16T05:01:08.660Z,100.00
2022-08-16T05:03:35.390Z,100.00
2022-08-16T05:06:09.503Z,100.00
2022-08-16T05:08:37.441Z,100.00
2022-08-16T05:11:08.595Z,100.00
2022-08-16T05:13:41.429Z,100.00
2022-08-16T05:16:16.674Z,90.86
2022-08-16T05:18:47.965Z,80.33
2022-08-16T05:21:14.968Z,77.96
2022-08-16T05:23:44.394Z,76.64
2022-08-16T05:26:20.422Z,69.14
2022-08-16T05:28:55.196Z,67.77
2022-08-16T05:31:24.126Z,67.50
2022-08-16T05:33:57.672Z,65.65
2022-08-16T05:36:24.924Z,65.47
2022-08-16T05:39:05.835Z,65.80
2022-08-16T05:41:33.126Z,62.00
2022-08-16T05:44:22.904Z,59.55
2022-08-16T05:47:00.822Z,55.80
2022-08-16T05:49:39.471Z,55.75
2022-08-16T05:52:11.598Z,49.61
2022-08-16T05:54:46.606Z,46.92
2022-08-16T05:57:13.910Z,47.87
2022-08-16T05:59:41.867Z,44.61
2022-08-16T06:02:08.627Z,42.68
2022-08-16T06:04:37.585Z,41.62
2022-08-16T06:07:08.800Z,40.55
2022-08-16T06:09:43.722Z,38.80
2022-08-16T06:12:26.804Z,39.50
2022-08-16T06:14:59.534Z,40.44
2022-08-16T06:17:42.363Z,39.61
2022-08-16T06:20:23.132Z,39.72
2022-08-16T06:22:57.523Z,40.06
2022-08-16T06:25:35.993Z,41.59
2022-08-16T06:28:09.485Z,40.02
2022-08-16T06:30:44.056Z,38.82
2022-08-16T06:33:22.307Z,36.39
2022-08-16T06:35:54.652Z,35.38
2022-08-16T06:38:33.245Z,35.36
2022-08-16T06:41:13.454Z,35.78
2022-08-16T06:43:41.785Z,34.38
2022-08-16T06:46:21.965Z,35.57
2022-08-16T06:48:51.767Z,34.66
2022-08-16T06:51:18.729Z,33.04
2022-08-16T06:53:46.373Z,33.46
2022-08-16T06:56:23.498Z,33.24
2022-08-16T06:58:52.421Z,32.93
2022-08-16T07:01:34.387Z,33.12
2022-08-16T07:04:11.930Z,35.94
2022-08-16T07:06:43.726Z,34.77
2022-08-16T07:09:13.373Z,33.25
2022-08-16T07:11:47.476Z,32.25
2022-08-16T07:14:26.405Z,32.71
2022-08-16T07:16:58.858Z,32.90
2022-08-16T07:20:01.748Z,37.57
2022-08-16T07:22:36.751Z,34.36
2022-08-16T07:25:05.352Z,34.81
2022-08-16T07:27:37.255Z,33.27
2022-08-16T07:30:45.980Z,32.70
2022-08-16T07:32:56.188Z,34.77
2022-08-16T07:35:23.597Z,34.48
2022-08-16T07:37:50.271Z,31.67
2022-08-16T07:40:37.009Z,32.37
2022-08-16T07:43:07.270Z,31.86
2022-08-16T07:45:37.885Z,30.88
2022-08-16T07:48:11.903Z,30.06
2022-08-16T07:50:55.712Z,29.26
2022-08-16T07:53:24.642Z,30.16
2022-08-16T07:55:55.522Z,31.09
2022-08-16T07:58:33.891Z,30.25
2022-08-16T08:01:10.612Z,28.40
2022-08-16T08:03:48.481Z,29.50
2022-08-16T08:06:21.328Z,28.75
2022-08-16T08:08:57.165Z,31.81
2022-08-16T08:11:25.061Z,33.80
2022-08-16T08:13:57.581Z,31.96
2022-08-16T08:16:33.132Z,30.85
2022-08-16T08:19:02.952Z,31.68
2022-08-16T08:21:58.253Z,32.20
2022-08-16T08:24:18.745Z,32.74
2022-08-16T08:26:50.340Z,33.44
2022-08-16T08:29:22.512Z,37.00
2022-08-16T08:31:49.927Z,32.33
2022-08-16T08:34:18.792Z,30.40
2022-08-16T08:36:45.719Z,32.45
2022-08-16T08:39:15.639Z,33.00
2022-08-16T08:41:49.334Z,29.13
2022-08-16T08:44:28.537Z,32.65
2022-08-16T08:47:11.063Z,35.95
2022-08-16T08:49:50.743Z,33.38
2022-08-16T08:52:34.721Z,35.68
2022-08-16T08:55:09.184Z,36.61
2022-08-16T08:57:38.330Z,38.40
2022-08-16T09:00:07.910Z,36.54
2022-08-16T09:02:40.416Z,36.96
2022-08-16T09:05:15.602Z,37.55
2022-08-16T09:08:00.351Z,35.82
2022-08-16T09:10:29.481Z,38.25
2022-08-16T09:12:58.198Z,36.08
2022-08-16T09:15:32.658Z,36.17
2022-08-16T09:18:25.417Z,37.13
2022-08-16T09:21:00.182Z,38.32
2022-08-16T09:23:36.668Z,38.76
2022-08-16T09:26:44.907Z,37.45
2022-08-16T09:29:15.019Z,40.99
2022-08-16T09:31:43.269Z,40.35
2022-08-16T09:34:17.162Z,39.50
2022-08-16T09:36:46.184Z,39.97
2022-08-16T09:39:16.029Z,38.70
2022-08-16T09:41:53.231Z,40.01
2022-08-16T09:45:11.655Z,38.51
2022-08-16T09:47:11.025Z,36.22
2022-08-16T09:49:41.152Z,37.96
2022-08-16T09:52:09.455Z,36.65
2022-08-16T09:54:38.915Z,37.27
2022-08-16T09:57:14.849Z,36.34
2022-08-16T09:59:42.385Z,37.94
2022-08-16T10:02:26.846Z,38.42
2022-08-16T10:04:58.580Z,42.70
2022-08-16T10:07:38.266Z,39.98
2022-08-16T10:10:18.678Z,40.82
2022-08-16T10:13:12.647Z,41.80
2022-08-16T10:15:55.745Z,40.08
2022-08-16T10:19:00.509Z,42.16
2022-08-16T10:21:10.269Z,38.67
2022-08-16T10:23:37.217Z,42.83
2022-08-16T10:27:18.288Z,42.36
2022-08-16T10:28:52.352Z,42.80
2022-08-16T10:31:43.650Z,44.27
2022-08-16T10:34:30.967Z,44.24
2022-08-16T10:36:54.203Z,44.85
2022-08-16T10:39:24.566Z,48.03
2022-08-16T10:41:51.414Z,48.58
2022-08-16T10:44:18.214Z,45.81
2022-08-16T10:46:46.181Z,46.84
2022-08-16T10:49:18.150Z,48.17
2022-08-16T10:52:01.846Z,49.17
2022-08-16T10:54:31.157Z,51.49
2022-08-16T10:57:00.529Z,52.46
2022-08-16T10:59:38.944Z,54.14
2022-08-16T11:02:59.169Z,55.72
2022-08-16T11:05:14.085Z,55.88
2022-08-16T11:07:51.497Z,50.76
2022-08-16T11:13:58.310Z,53.72
2022-08-16T11:19:05.231Z,54.69
2022-08-16T11:21:33.717Z,51.84
2022-08-16T11:24:02.125Z,54.80
2022-08-16T11:26:29.811Z,61.20
2022-08-16T11:29:14.503Z,58.94
2022-08-16T11:31:45.710Z,58.77
2022-08-16T11:34:20.871Z,55.38
2022-08-16T11:36:54.006Z,52.61
2022-08-16T11:39:29.737Z,51.23
2022-08-16T11:41:57.968Z,51.21
2022-08-16T11:44:52.957Z,60.17
2022-08-16T11:47:15.312Z,56.65
2022-08-16T11:49:42.468Z,60.66
2022-08-16T11:52:09.355Z,57.56
2022-08-16T11:54:41.646Z,61.66
2022-08-16T11:57:12.158Z,59.61
2022-08-16T11:59:40.261Z,62.31
2022-08-16T12:02:31.607Z,60.87
2022-08-16T12:04:55.914Z,60.30
2022-08-16T12:07:23.514Z,64.00
2022-08-16T12:09:53.201Z,70.37
2022-08-16T12:12:21.264Z,66.37
2022-08-16T12:14:55.878Z,64.84
2022-08-16T12:17:28.101Z,64.78
2022-08-16T12:19:58.444Z,77.13
2022-08-16T12:22:25.362Z,78.37
2022-08-16T12:24:54.857Z,74.39
2022-08-16T12:27:24.176Z,79.30
2022-08-16T12:29:52.840Z,81.31
2022-08-16T12:32:37.475Z,76.07
2022-08-16T12:35:08.663Z,83.75
2022-08-16T12:37:35.624Z,88.48
2022-08-16T12:40:02.694Z,72.64
2022-08-16T12:42:35.506Z,79.17
2022-08-16T12:45:06.044Z,70.85
2022-08-16T12:47:51.406Z,74.84
2022-08-16T12:50:20.512Z,65.30
2022-08-16T12:52:52.943Z,68.72
2022-08-16T12:55:20.845Z,63.20
2022-08-16T12:57:58.553Z,66.92
2022-08-16T13:00:34.032Z,59.05
2022-08-16T13:03:03.550Z,58.29
2022-08-16T13:08:03.333Z,57.29
2022-08-16T13:10:38.152Z,54.20
2022-08-16T13:13:08.739Z,60.26
2022-08-16T13:15:55.710Z,56.60
2022-08-16T13:18:32.678Z,62.92
2022-08-16T13:21:06.726Z,67.17
2022-08-16T13:23:35.798Z,73.11
2022-08-16T13:26:03.436Z,94.96
2022-08-16T13:28:30.091Z,92.01
2022-08-16T13:30:58.468Z,100.00
2022-08-16T13:33:30.555Z,100.00
2022-08-16T13:36:02.048Z,100.00
2022-08-16T13:38:31.380Z,100.00
2022-08-16T13:40:59.799Z,100.00
2022-08-16T13:43:28.011Z,100.00
2022-08-16T13:45:56.791Z,100.00
2022-08-16T13:48:26.058Z,100.00
2022-08-16T13:51:00.592Z,100.00
2022-08-16T13:53:30.911Z,100.00
2022-08-16T13:56:02.532Z,100.00
2022-08-16T13:58:37.513Z,100.00
2022-08-16T14:01:18.534Z,100.00
2022-08-16T14:03:46.852Z,100.00
2022-08-16T14:06:14.859Z,100.00
2022-08-16T14:08:43.188Z,100.00
2022-08-16T14:11:14.854Z,100.00
2022-08-16T14:13:43.872Z,100.00
2022-08-16T14:16:12.622Z,100.00
2022-08-16T14:18:53.139Z,100.00
2022-08-16T14:21:23.676Z,100.00
2022-08-16T14:23:52.359Z,100.00
2022-08-16T14:26:21.539Z,100.00
2022-08-16T14:28:50.703Z,100.00
2022-08-16T14:31:18.482Z,100.00
2022-08-16T14:33:45.993Z,100.00
2022-08-16T14:36:25.034Z,100.00
2022-08-16T14:38:56.896Z,100.00
2022-08-16T14:41:28.945Z,100.00
2022-08-16T14:43:56.646Z,100.00
2022-08-16T14:46:24.070Z,100.00
2022-08-16T14:48:51.103Z,100.00
2022-08-16T14:51:20.465Z,100.00
2022-08-16T14:53:52.712Z,100.00
2022-08-16T14:56:38.563Z,100.00
2022-08-16T14:59:06.861Z,100.00
2022-08-16T15:01:57.378Z,100.00
2022-08-16T15:04:40.519Z,100.00
2022-08-16T15:07:12.850Z,100.00
2022-08-16T15:10:00.623Z,100.00
2022-08-16T15:12:34.004Z,100.00
2022-08-16T15:15:13.126Z,100.00
2022-08-16T15:17:53.990Z,100.00
2022-08-16T15:20:22.574Z,100.00
2022-08-16T15:22:50.719Z,100.00
2022-08-16T15:25:41.326Z,100.00
2022-08-16T15:28:23.600Z,100.00
2022-08-16T15:31:06.060Z,100.00
2022-08-16T15:33:35.294Z,100.00
2022-08-16T15:36:03.001Z,100.00
2022-08-16T15:38:54.717Z,100.00
2022-08-16T15:41:42.528Z,100.00
2022-08-16T15:44:17.967Z,100.00
2022-08-16T15:46:55.439Z,100.00
2022-08-16T15:49:38.039Z,100.00
2022-08-16T15:52:24.795Z,100.00
2022-08-16T15:54:59.524Z,100.00
2022-08-16T15:57:28.549Z,100.00
2022-08-16T16:00:14.777Z,100.00
2022-08-16T16:02:43.940Z,100.00
2022-08-16T16:05:10.983Z,100.00
2022-08-16T16:07:41.041Z,100.00
2022-08-16T16:10:30.099Z,100.00
2022-08-16T16:13:04.922Z,100.00
2022-08-16T16:15:44.987Z,100.00
2022-08-16T16:18:13.403Z,100.00
2022-08-16T16:20:43.946Z,100.00
2022-08-16T16:23:11.434Z,100.00
2022-08-16T16:25:40.070Z,100.00
2022-08-16T16:29:06.537Z,100.00
2022-08-16T16:31:04.982Z,100.00
2022-08-16T16:33:39.794Z,100.00
2022-08-16T16:36:07.100Z,100.00
2022-08-16T16:38:35.333Z,100.00
2022-08-16T16:41:09.927Z,100.00
2022-08-16T16:43:43.922Z,100.00
2022-08-16T16:46:32.767Z,100.00
2022-08-16T16:49:04.105Z,100.00
2022-08-16T16:51:32.588Z,100.00
2022-08-16T16:54:08.646Z,100.00
2022-08-16T16:56:37.771Z,100.00
2022-08-16T16:59:10.303Z,100.00
2022-08-16T17:02:00.529Z,100.00
2022-08-16T17:04:31.828Z,100.00
2022-08-16T17:07:02.732Z,100.00
2022-08-16T17:09:30.066Z,100.00
2022-08-16T17:11:57.260Z,100.00
2022-08-16T17:14:33.340Z,100.00
2022-08-16T17:17:11.709Z,100.00
2022-08-16T17:19:45.617Z,100.00
2022-08-16T17:22:15.538Z,100.00
2022-08-16T17:24:44.790Z,100.00
2022-08-16T17:27:18.054Z,100.00
2022-08-16T17:29:51.406Z,100.00
2022-08-16T17:32:34.315Z,100.00
2022-08-16T17:35:18.469Z,100.00
2022-08-16T17:37:51.831Z,100.00
2022-08-16T17:40:34.013Z,100.00
2022-08-16T17:43:14.641Z,100.00
2022-08-16T17:45:42.699Z,100.00
2022-08-16T17:48:09.692Z,100.00
2022-08-16T17:50:38.863Z,100.00
2022-08-16T17:53:06.675Z,100.00
2022-08-16T17:55:36.768Z,100.00
2022-08-16T17:58:14.555Z,100.00
2022-08-16T18:00:53.313Z,100.00
2022-08-16T18:04:07.079Z,100.00
2022-08-16T18:06:25.089Z,100.00
2022-08-16T18:09:01.732Z,100.00
2022-08-16T18:11:30.162Z,100.00
2022-08-16T18:13:59.837Z,100.00
2022-08-16T18:16:27.067Z,100.00
2022-08-16T18:18:55.787Z,100.00
2022-08-16T18:21:41.235Z,100.00
2022-08-16T18:24:08.559Z,100.00
2022-08-16T18:26:35.814Z,100.00
2022-08-16T18:29:02.637Z,100.00
2022-08-16T18:31:29.631Z,100.00
2022-08-16T18:33:56.709Z,100.00
2022-08-16T18:36:24.655Z,100.00
2022-08-16T18:38:53.102Z,100.00
2022-08-16T18:41:23.050Z,100.00
2022-08-16T18:44:04.792Z,100.00
2022-08-16T18:46:40.596Z,100.00
2022-08-16T18:49:07.524Z,100.00
2022-08-16T18:51:36.981Z,100.00
2022-08-16T18:54:04.839Z,100.00
2022-08-16T18:56:55.469Z,100.00
2022-08-16T18:59:18.458Z,100.00
2022-08-16T19:01:46.746Z,100.00
2022-08-16T19:04:55.400Z,100.00
2022-08-16T19:07:01.175Z,100.00
2022-08-16T19:09:27.892Z,100.00
2022-08-16T19:11:54.792Z,100.00
2022-08-16T19:14:24.825Z,100.00
2022-08-16T19:16:51.639Z,100.00
2022-08-16T19:19:18.309Z,100.00
2022-08-16T19:21:45.054Z,100.00
2022-08-16T19:24:17.766Z,100.00
2022-08-16T19:26:45.478Z,100.00
2022-08-16T19:29:12.243Z,100.00
2022-08-16T19:31:40.499Z,100.00
2022-08-16T19:34:08.270Z,100.00
2022-08-16T19:36:37.565Z,100.00
2022-08-16T19:39:11.198Z,100.00
2022-08-16T19:41:52.076Z,100.00
2022-08-16T19:44:22.640Z,100.00
2022-08-16T19:46:50.013Z,100.00
2022-08-16T19:49:17.196Z,100.00
2022-08-16T19:51:45.766Z,100.00
2022-08-16T19:54:12.489Z,100.00
2022-08-16T19:56:39.236Z,100.00
2022-08-16T19:59:40.565Z,100.00
2022-08-16T20:01:56.659Z,100.00
2022-08-16T20:04:25.694Z,100.00
2022-08-16T20:06:53.303Z,100.00
2022-08-16T20:09:22.156Z,100.00
2022-08-16T20:11:52.245Z,100.00
2022-08-16T20:14:25.392Z,100.00
2022-08-16T20:17:01.472Z,100.00
2022-08-16T20:19:33.409Z,100.00
2022-08-16T20:22:42.105Z,100.00
2022-08-16T20:25:09.740Z,100.00
2022-08-16T20:27:39.135Z,100.00
2022-08-16T20:30:08.944Z,100.00
2022-08-16T20:32:40.426Z,100.00
2022-08-16T20:35:10.575Z,100.00
2022-08-16T20:37:38.981Z,100.00
2022-08-16T20:40:28.336Z,100.00
2022-08-16T20:43:04.833Z,100.00
2022-08-16T20:45:33.727Z,100.00
2022-08-16T20:48:00.445Z,100.00
2022-08-16T20:50:27.190Z,100.00
2022-08-16T20:52:57.321Z,100.00
2022-08-16T20:55:25.441Z,100.00
2022-08-16T20:57:55.772Z,100.00
2022-08-16T21:00:23.027Z,100.00
2022-08-16T21:02:50.331Z,100.00
2022-08-16T21:05:25.870Z,100.00
2022-08-16T21:08:00.570Z,100.00
2022-08-16T21:10:29.959Z,100.00
2022-08-16T21:12:59.824Z,100.00
2022-08-16T21:15:27.678Z,100.00
2022-08-16T21:17:55.109Z,100.00
2022-08-16T21:20:26.760Z,100.00
2022-08-16T21:23:01.309Z,100.00
2022-08-16T21:25:30.494Z,100.00
2022-08-16T21:28:39.221Z,100.00
2022-08-16T21:30:50.238Z,100.00
2022-08-16T21:33:19.449Z,100.00
2022-08-16T21:35:48.332Z,100.00
2022-08-16T21:38:29.655Z,100.00
2022-08-16T21:40:58.420Z,100.00
2022-08-16T21:43:26.690Z,100.00
2022-08-16T21:45:55.790Z,100.00
2022-08-16T21:48:34.346Z,100.00
2022-08-16T21:51:10.769Z,100.00
2022-08-16T21:53:38.369Z,100.00
2022-08-16T21:56:06.641Z,100.00
2022-08-16T21:58:37.625Z,100.00
2022-08-16T22:01:05.128Z,100.00
2022-08-16T22:03:35.542Z,100.00
2022-08-16T22:06:13.153Z,100.00
2022-08-16T22:08:48.921Z,100.00
2022-08-16T22:11:24.780Z,100.00
2022-08-16T22:13:58.512Z,100.00
2022-08-16T22:16:29.690Z,100.00
2022-08-16T22:18:56.418Z,100.00
2022-08-16T22:21:23.325Z,100.00
2022-08-16T22:23:57.267Z,100.00
2022-08-16T22:26:32.478Z,100.00
2022-08-16T22:29:06.476Z,100.00
2022-08-16T22:31:34.451Z,100.00
2022-08-16T22:34:04.457Z,100.00
2022-08-16T22:36:33.407Z,100.00
2022-08-16T22:39:05.554Z,100.00
2022-08-16T22:41:35.467Z,100.00
2022-08-16T22:44:04.315Z,100.00
2022-08-16T22:46:31.767Z,100.00
2022-08-16T22:48:58.757Z,100.00
2022-08-16T22:51:28.438Z,100.00
2022-08-16T22:53:56.147Z,100.00
2022-08-16T22:56:26.219Z,100.00
2022-08-16T22:58:53.265Z,100.00
2022-08-16T23:01:22.284Z,100.00
2022-08-16T23:03:49.147Z,100.00
2022-08-16T23:06:17.107Z,100.00
2022-08-16T23:08:44.136Z,100.00
2022-08-16T23:11:21.428Z,100.00
2022-08-16T23:13:53.709Z,100.00
2022-08-16T23:16:32.262Z,100.00
2022-08-16T23:19:03.333Z,100.00
2022-08-16T23:21:30.224Z,100.00
2022-08-16T23:23:56.924Z,100.00
2022-08-16T23:26:44.874Z,100.00
2022-08-16T23:29:16.043Z,100.00
2022-08-16T23:31:50.570Z,100.00
2022-08-16T23:34:21.156Z,100.00
2022-08-16T23:36:47.826Z,100.00
2022-08-16T23:39:14.484Z,100.00
2022-08-16T23:41:41.252Z,100.00
2022-08-16T23:44:57.469Z,100.00
2022-08-16T23:46:55.633Z,100.00
2022-08-16T23:50:01.988Z,100.00
2022-08-16T23:52:11.508Z,100.00
2022-08-16T23:54:38.415Z,100.00
2022-08-16T23:57:05.350Z,100.00
2022-08-16T23:59:52.185Z,100.00
